Time;durP1;ratioP1;P1;durP2;ratioP2;P2;SDS_P1;SDS_P2;PMS_P1;PMS_P2;Temp;Humidity;BMP_temperature;BMP_pressure;BME280_temperature;BME280_humidity;BME280_pressure;Samples;Min_cycle;Max_cycle;Signal;HPM_P1;HPM_P2
2022/01/04 00:01:12;;;;;;;;;;;20.00;37.50;;;;;;494202;241;1106;-76
2022/01/04 00:03:13;;;;;;;;;;;20.10;37.50;;;;;;494437;241;2178;-76
2022/01/04 00:05:14;;;;;;;;;;;20.00;37.80;;;;;;494406;241;1366;-76
2022/01/04 00:07:15;;;;;;;;;;;19.90;37.80;;;;;;494205;241;1234;-76
2022/01/04 00:09:17;;;;;;;;;;;20.00;37.90;;;;;;494218;241;973;-76
2022/01/04 00:11:30;;;;;;;;;;;19.90;38.00;;;;;;494315;241;1137;-76
2022/01/04 00:13:24;;;;;;;;;;;19.90;38.00;;;;;;493471;241;1325;-76
2022/01/04 00:15:24;;;;;;;;;;;19.90;38.00;;;;;;494695;241;1178;-76
2022/01/04 00:17:26;;;;;;;;;;;20.00;37.70;;;;;;494296;241;1138;-76
2022/01/04 00:19:27;;;;;;;;;;;20.10;37.70;;;;;;494356;241;1110;-76
2022/01/04 00:21:28;;;;;;;;;;;20.10;37.80;;;;;;494168;241;1160;-76
2022/01/04 00:23:30;;;;;;;;;;;20.00;37.80;;;;;;494185;241;2190;-76
2022/01/04 00:25:31;;;;;;;;;;;19.90;37.90;;;;;;494221;241;1141;-76
2022/01/04 00:27:33;;;;;;;;;;;20.10;37.80;;;;;;494351;241;1128;-74
2022/01/04 00:29:34;;;;;;;;;;;20.00;37.90;;;;;;494249;241;1102;-76
2022/01/04 00:31:35;;;;;;;;;;;19.90;38.00;;;;;;494131;241;1243;-76
2022/01/04 00:33:37;;;;;;;;;;;19.90;38.10;;;;;;494240;241;1145;-76
2022/01/04 00:35:38;;;;;;;;;;;20.00;37.90;;;;;;494215;241;1134;-76
2022/01/04 00:37:39;;;;;;;;;;;19.90;38.10;;;;;;494297;241;1102;-76
2022/01/04 00:39:40;;;;;;;;;;;20.10;37.90;;;;;;494297;241;1079;-76
2022/01/04 00:41:42;;;;;;;;;;;20.30;37.80;;;;;;494233;241;1323;-76
2022/01/04 00:43:45;;;;;;;;;;;20.20;37.40;;;;;;494279;241;2124;-76
2022/01/04 00:45:45;;;;;;;;;;;20.10;37.70;;;;;;494256;241;1432;-76
2022/01/04 00:49:09;;;;;;;;;;;20.00;37.90;;;;;;494254;241;1293;-76
2022/01/04 00:49:48;;;;;;;;;;;19.90;38.20;;;;;;493001;241;1110;-76
2022/01/04 00:51:49;;;;;;;;;;;19.90;38.30;;;;;;494135;241;1350;-76
2022/01/04 00:53:51;;;;;;;;;;;20.10;37.90;;;;;;494359;241;1081;-76
2022/01/04 00:55:52;;;;;;;;;;;20.30;37.70;;;;;;494244;241;1131;-76
2022/01/04 00:57:53;;;;;;;;;;;20.20;37.60;;;;;;494355;241;1121;-76
2022/01/04 00:59:55;;;;;;;;;;;20.40;37.20;;;;;;494285;241;1082;-76
2022/01/04 01:01:56;;;;;;;;;;;20.30;37.40;;;;;;494215;241;1368;-76
2022/01/04 01:03:57;;;;;;;;;;;20.20;37.60;;;;;;494224;241;2202;-76
2022/01/04 01:05:59;;;;;;;;;;;20.30;37.80;;;;;;494201;241;1198;-76
2022/01/04 01:08:00;;;;;;;;;;;20.30;37.50;;;;;;494184;241;1144;-76
2022/01/04 01:10:12;;;;;;;;;;;20.00;37.80;;;;;;494327;241;1380;-76
2022/01/04 01:12:03;;;;;;;;;;;20.30;37.70;;;;;;493380;241;1315;-76
2022/01/04 01:14:04;;;;;;;;;;;20.20;37.60;;;;;;494245;241;1032;-76
2022/01/04 01:16:05;;;;;;;;;;;20.10;37.60;;;;;;494346;241;1158;-76
2022/01/04 01:18:07;;;;;;;;;;;20.20;37.70;;;;;;494343;241;1391;-76
2022/01/04 01:20:08;;;;;;;;;;;20.50;37.30;;;;;;494280;241;1052;-76
2022/01/04 01:22:09;;;;;;;;;;;20.20;37.30;;;;;;494321;241;1338;-76
2022/01/04 01:24:11;;;;;;;;;;;20.50;37.30;;;;;;494307;241;2119;-76
2022/01/04 01:26:12;;;;;;;;;;;20.30;37.50;;;;;;494373;241;1186;-76
2022/01/04 01:28:14;;;;;;;;;;;20.30;37.50;;;;;;494363;241;1186;-76
2022/01/04 01:30:15;;;;;;;;;;;20.30;37.60;;;;;;494291;241;961;-76
2022/01/04 01:32:17;;;;;;;;;;;20.20;37.70;;;;;;494211;241;1425;-76
2022/01/04 01:34:18;;;;;;;;;;;20.10;37.80;;;;;;494238;241;985;-76
2022/01/04 01:36:19;;;;;;;;;;;20.30;37.50;;;;;;494223;241;1176;-76
2022/01/04 01:38:21;;;;;;;;;;;20.20;37.70;;;;;;494487;241;1204;-76
2022/01/04 01:40:22;;;;;;;;;;;20.30;37.50;;;;;;494298;241;1050;-76
2022/01/04 01:42:24;;;;;;;;;;;20.30;37.70;;;;;;494253;241;1148;-76
2022/01/04 01:44:25;;;;;;;;;;;20.20;37.90;;;;;;494276;241;2186;-76
2022/01/04 01:46:26;;;;;;;;;;;20.30;37.60;;;;;;494218;241;1598;-76
2022/01/04 01:48:28;;;;;;;;;;;20.30;37.70;;;;;;494223;241;1101;-76
2022/01/04 01:50:29;;;;;;;;;;;20.20;37.70;;;;;;494300;241;1508;-76
2022/01/04 01:52:30;;;;;;;;;;;20.20;38.00;;;;;;494205;241;1138;-76
2022/01/04 01:54:32;;;;;;;;;;;20.20;37.90;;;;;;494358;241;1045;-76
2022/01/04 01:56:33;;;;;;;;;;;20.40;37.80;;;;;;494227;241;1124;-76
2022/01/04 01:58:34;;;;;;;;;;;20.40;37.50;;;;;;494268;241;1238;-76
2022/01/04 02:00:36;;;;;;;;;;;20.20;37.60;;;;;;494366;241;1095;-76
2022/01/04 02:02:37;;;;;;;;;;;20.50;37.40;;;;;;494236;241;1141;-76
2022/01/04 02:04:38;;;;;;;;;;;20.40;37.60;;;;;;494338;241;2171;-76
2022/01/04 02:06:40;;;;;;;;;;;20.30;37.70;;;;;;494149;241;1175;-76
2022/01/04 02:08:41;;;;;;;;;;;20.10;38.00;;;;;;494142;241;1122;-76
2022/01/04 02:10:42;;;;;;;;;;;20.40;37.80;;;;;;494230;241;1168;-76
2022/01/04 02:12:46;;;;;;;;;;;20.30;37.80;;;;;;494391;241;1103;-76
2022/01/04 02:14:45;;;;;;;;;;;20.40;37.70;;;;;;494141;241;1428;-76
2022/01/04 02:16:47;;;;;;;;;;;20.20;37.90;;;;;;494221;241;1199;-76
2022/01/04 02:18:48;;;;;;;;;;;20.10;38.00;;;;;;494405;241;1108;-76
2022/01/04 02:20:49;;;;;;;;;;;20.10;38.10;;;;;;494194;241;1183;-76
2022/01/04 02:22:51;;;;;;;;;;;20.10;38.10;;;;;;494072;241;1128;-76
2022/01/04 02:24:52;;;;;;;;;;;20.10;38.20;;;;;;494220;241;2186;-76
2022/01/04 02:26:53;;;;;;;;;;;20.20;38.00;;;;;;494358;241;1512;-76
2022/01/04 02:28:55;;;;;;;;;;;20.50;37.50;;;;;;494308;241;1073;-76
2022/01/04 02:30:56;;;;;;;;;;;20.30;37.40;;;;;;494239;241;1219;-76
2022/01/04 02:32:59;;;;;;;;;;;20.30;37.60;;;;;;494095;241;1118;-76
2022/01/04 02:34:59;;;;;;;;;;;20.30;37.60;;;;;;494162;241;1236;-76
2022/01/04 02:37:00;;;;;;;;;;;20.00;37.90;;;;;;494121;241;1173;-76
2022/01/04 02:39:01;;;;;;;;;;;20.10;37.90;;;;;;494231;241;1061;-76
2022/01/04 02:41:03;;;;;;;;;;;20.10;38.00;;;;;;494251;241;1451;-76
2022/01/04 02:43:04;;;;;;;;;;;20.30;37.90;;;;;;494306;241;1126;-76
2022/01/04 02:45:05;;;;;;;;;;;20.30;37.50;;;;;;494293;241;2136;-76
2022/01/04 02:47:07;;;;;;;;;;;20.30;37.50;;;;;;494192;241;1069;-76
2022/01/04 02:49:08;;;;;;;;;;;20.60;37.20;;;;;;494267;241;1173;-76
2022/01/04 02:51:09;;;;;;;;;;;20.40;37.50;;;;;;494225;241;1304;-76
2022/01/04 02:53:10;;;;;;;;;;;20.30;37.40;;;;;;494178;241;1130;-76
2022/01/04 02:55:12;;;;;;;;;;;20.20;37.70;;;;;;494248;241;992;-76
2022/01/04 02:57:13;;;;;;;;;;;20.20;37.80;;;;;;494278;241;1201;-76
2022/01/04 02:59:14;;;;;;;;;;;20.30;37.80;;;;;;494352;241;1031;-76
2022/01/04 03:01:16;;;;;;;;;;;20.20;37.70;;;;;;494122;241;1258;-76
2022/01/04 03:03:17;;;;;;;;;;;20.30;37.70;;;;;;494345;241;1228;-76
2022/01/04 03:05:18;;;;;;;;;;;20.10;37.70;;;;;;494212;241;2175;-76
2022/01/04 03:07:20;;;;;;;;;;;20.40;37.30;;;;;;494287;241;1310;-76
2022/01/04 03:09:21;;;;;;;;;;;20.30;37.30;;;;;;494329;241;1139;-76
2022/01/04 03:11:22;;;;;;;;;;;20.30;37.70;;;;;;494278;241;1535;-76
2022/01/04 03:13:24;;;;;;;;;;;20.20;37.40;;;;;;494391;241;1112;-76
2022/01/04 03:15:25;;;;;;;;;;;20.30;37.50;;;;;;494283;241;1031;-76
2022/01/04 03:17:26;;;;;;;;;;;20.30;37.80;;;;;;494124;241;1076;-76
2022/01/04 03:19:28;;;;;;;;;;;20.20;37.60;;;;;;494321;241;1131;-76
2022/01/04 03:21:29;;;;;;;;;;;20.20;37.80;;;;;;494425;241;1217;-76
2022/01/04 03:23:30;;;;;;;;;;;20.20;37.80;;;;;;494384;241;1124;-76
2022/01/04 03:25:32;;;;;;;;;;;20.20;37.80;;;;;;494284;241;2190;-76
2022/01/04 03:27:33;;;;;;;;;;;20.20;37.90;;;;;;494325;241;1123;-76
2022/01/04 03:29:34;;;;;;;;;;;20.40;37.50;;;;;;494400;241;1077;-76
2022/01/04 03:31:36;;;;;;;;;;;20.30;37.60;;;;;;494255;241;1483;-76
2022/01/04 03:33:37;;;;;;;;;;;20.20;38.00;;;;;;494203;241;1169;-76
2022/01/04 03:35:38;;;;;;;;;;;20.00;38.20;;;;;;494248;241;995;-76
2022/01/04 03:37:40;;;;;;;;;;;19.90;38.50;;;;;;494149;241;1122;-76
2022/01/04 03:39:41;;;;;;;;;;;20.10;38.40;;;;;;494288;241;1041;-76
2022/01/04 03:41:42;;;;;;;;;;;20.20;38.20;;;;;;494356;241;1269;-76
2022/01/04 03:43:44;;;;;;;;;;;20.10;38.30;;;;;;494413;241;1195;-76
2022/01/04 03:45:45;;;;;;;;;;;20.40;38.00;;;;;;494258;241;2183;-76
2022/01/04 03:47:46;;;;;;;;;;;20.20;38.10;;;;;;494176;241;1106;-76
2022/01/04 03:49:48;;;;;;;;;;;20.20;38.20;;;;;;494287;241;1178;-76
2022/01/04 03:51:49;;;;;;;;;;;20.20;38.40;;;;;;494205;241;1127;-76
2022/01/04 03:53:51;;;;;;;;;;;20.10;38.50;;;;;;494227;241;1107;-76
2022/01/04 03:55:52;;;;;;;;;;;19.90;38.60;;;;;;494227;241;1076;-76
2022/01/04 03:57:53;;;;;;;;;;;20.00;38.60;;;;;;494317;241;1114;-76
2022/01/04 03:59:55;;;;;;;;;;;20.20;38.30;;;;;;494303;241;1059;-76
2022/01/04 04:01:56;;;;;;;;;;;20.20;38.30;;;;;;494155;241;1287;-76
2022/01/04 04:03:58;;;;;;;;;;;20.20;38.30;;;;;;494281;241;1156;-76
2022/01/04 04:05:59;;;;;;;;;;;20.20;38.20;;;;;;494236;241;2118;-76
2022/01/04 04:08:00;;;;;;;;;;;20.10;38.40;;;;;;494319;241;1121;-76
2022/01/04 04:10:01;;;;;;;;;;;20.00;38.70;;;;;;494272;241;983;-76
2022/01/04 04:12:03;;;;;;;;;;;20.30;38.10;;;;;;494348;241;1412;-76
2022/01/04 04:14:04;;;;;;;;;;;20.10;38.40;;;;;;494322;241;1128;-76
2022/01/04 04:16:05;;;;;;;;;;;20.30;38.30;;;;;;494290;241;1138;-76
2022/01/04 04:18:07;;;;;;;;;;;20.50;38.20;;;;;;494195;241;1057;-76
2022/01/04 04:20:09;;;;;;;;;;;20.20;38.30;;;;;;494251;241;1120;-76
2022/01/04 04:22:10;;;;;;;;;;;20.00;38.70;;;;;;494234;241;1211;-76
2022/01/04 04:24:11;;;;;;;;;;;20.00;38.80;;;;;;494279;241;1099;-76
2022/01/04 04:26:13;;;;;;;;;;;20.00;38.90;;;;;;494243;241;2186;-76
2022/01/04 04:28:14;;;;;;;;;;;20.00;38.90;;;;;;494488;241;1067;-76
2022/01/04 04:30:15;;;;;;;;;;;20.10;38.80;;;;;;494312;241;1039;-76
2022/01/04 04:32:17;;;;;;;;;;;20.20;38.80;;;;;;494176;241;1104;-76
2022/01/04 04:34:18;;;;;;;;;;;20.20;38.90;;;;;;494317;241;1197;-76
2022/01/04 04:36:19;;;;;;;;;;;20.00;39.10;;;;;;494425;241;1391;-76
2022/01/04 04:38:21;;;;;;;;;;;20.00;39.10;;;;;;494377;241;1109;-76
2022/01/04 04:40:22;;;;;;;;;;;20.00;39.20;;;;;;494315;241;1048;-76
2022/01/04 04:42:23;;;;;;;;;;;20.10;39.10;;;;;;494155;241;1262;-76
2022/01/04 04:44:25;;;;;;;;;;;19.90;39.20;;;;;;494238;241;1029;-76
2022/01/04 04:46:26;;;;;;;;;;;19.90;39.40;;;;;;494127;241;2181;-76
2022/01/04 04:48:27;;;;;;;;;;;20.00;39.30;;;;;;494162;241;1162;-76
2022/01/04 04:50:29;;;;;;;;;;;20.10;39.30;;;;;;494377;241;1061;-76
2022/01/04 04:52:31;;;;;;;;;;;19.90;39.50;;;;;;494221;241;1209;-76
2022/01/04 04:54:32;;;;;;;;;;;19.90;39.50;;;;;;494329;241;1033;-76
2022/01/04 04:56:34;;;;;;;;;;;20.00;39.60;;;;;;494294;241;1218;-76
2022/01/04 04:58:35;;;;;;;;;;;19.80;39.90;;;;;;494229;241;1104;-76
2022/01/04 05:00:36;;;;;;;;;;;19.80;39.90;;;;;;494201;241;1098;-76
2022/01/04 05:02:38;;;;;;;;;;;19.90;39.90;;;;;;494205;241;1161;-76
2022/01/04 05:04:39;;;;;;;;;;;19.90;39.90;;;;;;494244;241;2159;-76
2022/01/04 05:06:41;;;;;;;;;;;19.90;39.90;;;;;;494245;241;1220;-76
2022/01/04 05:08:42;;;;;;;;;;;20.10;39.60;;;;;;494261;241;1048;-76
2022/01/04 05:10:43;;;;;;;;;;;20.00;39.70;;;;;;494402;241;1592;-76
2022/01/04 05:12:45;;;;;;;;;;;20.10;39.40;;;;;;494168;241;1204;-76
2022/01/04 05:14:46;;;;;;;;;;;20.00;39.80;;;;;;494341;241;1024;-76
2022/01/04 05:16:47;;;;;;;;;;;20.30;39.60;;;;;;494119;241;1347;-76
2022/01/04 05:18:49;;;;;;;;;;;20.20;39.30;;;;;;494159;241;1149;-76
2022/01/04 05:20:50;;;;;;;;;;;20.10;39.50;;;;;;494144;241;1420;-76
2022/01/04 05:22:51;;;;;;;;;;;20.00;39.50;;;;;;494255;241;1150;-76
2022/01/04 05:24:53;;;;;;;;;;;19.80;39.90;;;;;;494401;241;2191;-76
2022/01/04 05:26:54;;;;;;;;;;;19.80;40.00;;;;;;494259;241;1543;-76
2022/01/04 05:28:55;;;;;;;;;;;19.70;40.20;;;;;;494334;241;1065;-76
2022/01/04 05:30:56;;;;;;;;;;;19.60;40.30;;;;;;494200;241;1192;-77
2022/01/04 05:32:58;;;;;;;;;;;19.50;40.50;;;;;;494308;241;1159;-76
2022/01/04 05:34:59;;;;;;;;;;;19.40;40.60;;;;;;494210;241;1173;-76
2022/01/04 05:37:01;;;;;;;;;;;19.30;40.80;;;;;;494368;241;1233;-76
2022/01/04 05:39:02;;;;;;;;;;;19.30;40.90;;;;;;494099;241;987;-76
2022/01/04 05:41:03;;;;;;;;;;;19.30;40.90;;;;;;494121;241;1226;-76
2022/01/04 05:43:05;;;;;;;;;;;19.30;41.00;;;;;;494257;241;1422;-76
2022/01/04 05:45:06;;;;;;;;;;;19.20;41.00;;;;;;494296;241;2119;-76
2022/01/04 05:47:07;;;;;;;;;;;19.30;41.10;;;;;;494136;241;1216;-76
2022/01/04 05:49:09;;;;;;;;;;;19.20;41.20;;;;;;494254;241;1194;-76
2022/01/04 05:51:10;;;;;;;;;;;19.10;41.60;;;;;;494089;241;1219;-76
2022/01/04 05:53:11;;;;;;;;;;;18.90;41.80;;;;;;494293;241;1201;-76
2022/01/04 05:55:12;;;;;;;;;;;19.00;41.80;;;;;;494219;241;966;-76
2022/01/04 05:57:14;;;;;;;;;;;19.00;41.80;;;;;;494163;241;1114;-76
2022/01/04 05:59:15;;;;;;;;;;;19.00;41.70;;;;;;494187;241;1430;-76
2022/01/04 06:01:16;;;;;;;;;;;19.10;41.60;;;;;;494200;241;1185;-76
2022/01/04 06:03:18;;;;;;;;;;;19.00;41.60;;;;;;494133;241;1119;-76
2022/01/04 06:05:19;;;;;;;;;;;19.00;41.70;;;;;;494095;241;2187;-76
2022/01/04 06:07:20;;;;;;;;;;;19.00;41.70;;;;;;494120;241;1089;-76
2022/01/04 06:09:26;;;;;;;;;;;19.00;41.80;;;;;;494220;241;1027;-76
2022/01/04 06:11:54;;;;;;;;;;;19.00;41.90;;;;;;493916;241;1501;-76
2022/01/04 06:16:03;;;;;;;;;;;18.90;42.10;;;;;;494133;241;1142;-76
2022/01/04 06:18:04;;;;;;;;;;;18.90;42.00;;;;;;494140;241;1087;-76
2022/01/04 06:20:05;;;;;;;;;;;18.90;42.00;;;;;;494114;241;1513;-76
2022/01/04 06:22:07;;;;;;;;;;;19.00;42.00;;;;;;494091;241;1092;-76
2022/01/04 06:24:08;;;;;;;;;;;19.00;42.00;;;;;;494058;241;1002;-76
2022/01/04 06:26:09;;;;;;;;;;;19.00;42.20;;;;;;494008;241;2179;-76
2022/01/04 06:28:11;;;;;;;;;;;19.10;42.00;;;;;;494107;241;1075;-76
2022/01/04 06:30:12;;;;;;;;;;;19.10;42.00;;;;;;494143;241;1016;-76
2022/01/04 06:32:13;;;;;;;;;;;19.10;42.10;;;;;;493969;241;1226;-76
2022/01/04 06:34:15;;;;;;;;;;;19.00;42.10;;;;;;494110;241;1002;-76
2022/01/04 06:36:16;;;;;;;;;;;19.10;42.10;;;;;;493944;241;1136;-76
2022/01/04 06:38:17;;;;;;;;;;;19.10;42.00;;;;;;494191;241;1096;-76
2022/01/04 06:40:19;;;;;;;;;;;19.20;41.90;;;;;;494168;241;1094;-76
2022/01/04 06:42:20;;;;;;;;;;;19.20;41.80;;;;;;494120;241;1322;-76
2022/01/04 06:44:22;;;;;;;;;;;19.30;41.80;;;;;;494110;241;1217;-76
2022/01/04 06:46:25;;;;;;;;;;;19.20;41.80;;;;;;494011;241;2115;-76
2022/01/04 06:48:24;;;;;;;;;;;19.20;41.80;;;;;;494107;241;1339;-76
2022/01/04 06:50:25;;;;;;;;;;;19.40;41.70;;;;;;494052;241;1140;-76
2022/01/04 06:52:27;;;;;;;;;;;19.60;40.90;;;;;;493967;241;1157;-76
2022/01/04 06:54:28;;;;;;;;;;;19.60;41.00;;;;;;494211;241;1051;-76
2022/01/04 06:56:30;;;;;;;;;;;19.30;41.40;;;;;;494131;241;1305;-76
2022/01/04 06:58:31;;;;;;;;;;;19.20;41.60;;;;;;494093;241;1383;-76
2022/01/04 07:00:32;;;;;;;;;;;19.20;41.80;;;;;;494140;241;1510;-76
2022/01/04 07:02:33;;;;;;;;;;;19.10;41.90;;;;;;494126;241;1327;-76
2022/01/04 07:04:35;;;;;;;;;;;19.20;41.90;;;;;;494108;241;1365;-76
2022/01/04 07:06:36;;;;;;;;;;;19.20;41.80;;;;;;494106;241;2190;-76
2022/01/04 07:08:37;;;;;;;;;;;19.20;41.80;;;;;;494081;241;951;-76
2022/01/04 07:10:39;;;;;;;;;;;19.20;41.90;;;;;;494039;241;996;-76
2022/01/04 07:12:40;;;;;;;;;;;19.20;41.90;;;;;;494023;241;1110;-76
2022/01/04 07:14:41;;;;;;;;;;;19.20;41.90;;;;;;494162;241;1043;-76
2022/01/04 07:16:43;;;;;;;;;;;19.30;41.90;;;;;;493976;241;1477;-76
2022/01/04 07:18:46;;;;;;;;;;;19.20;41.90;;;;;;494050;241;1120;-76
2022/01/04 07:20:46;;;;;;;;;;;19.30;41.80;;;;;;494114;241;1330;-76
2022/01/04 07:22:47;;;;;;;;;;;19.30;41.80;;;;;;494052;241;1196;-76
2022/01/04 07:24:48;;;;;;;;;;;19.30;41.70;;;;;;494061;241;1085;-75
2022/01/04 07:26:50;;;;;;;;;;;19.30;41.90;;;;;;493993;241;2195;-75
2022/01/04 07:28:51;;;;;;;;;;;19.20;42.00;;;;;;494212;241;1131;-75
2022/01/04 07:30:52;;;;;;;;;;;19.20;42.10;;;;;;494083;241;1186;-76
2022/01/04 07:32:54;;;;;;;;;;;19.20;42.10;;;;;;494110;241;1261;-75
2022/01/04 07:34:56;;;;;;;;;;;19.20;42.10;;;;;;494085;241;1019;-76
2022/01/04 07:36:56;;;;;;;;;;;19.30;42.00;;;;;;493798;241;1349;-76
2022/01/04 07:38:58;;;;;;;;;;;19.30;41.90;;;;;;494018;241;1062;-76
2022/01/04 07:40:59;;;;;;;;;;;19.30;41.90;;;;;;493922;241;1131;-76
2022/01/04 07:43:00;;;;;;;;;;;19.30;42.00;;;;;;494081;241;1046;-76
2022/01/04 07:45:02;;;;;;;;;;;19.20;42.10;;;;;;493991;241;1385;-75
2022/01/04 07:47:03;;;;;;;;;;;19.30;42.20;;;;;;493851;241;2131;-75
2022/01/04 07:49:05;;;;;;;;;;;19.30;42.20;;;;;;493876;241;1209;-75
2022/01/04 07:51:06;;;;;;;;;;;19.30;42.20;;;;;;493817;241;1267;-76
2022/01/04 07:53:07;;;;;;;;;;;19.30;42.10;;;;;;493910;241;1096;-76
2022/01/04 07:55:09;;;;;;;;;;;19.40;42.10;;;;;;493902;241;996;-76
2022/01/04 07:57:10;;;;;;;;;;;19.30;42.10;;;;;;494021;241;1391;-76
2022/01/04 07:59:11;;;;;;;;;;;19.20;42.30;;;;;;494101;241;1037;-76
2022/01/04 08:01:13;;;;;;;;;;;19.30;42.30;;;;;;494010;241;1234;-76
2022/01/04 08:03:14;;;;;;;;;;;19.20;42.40;;;;;;493994;241;1450;-76
2022/01/04 08:05:16;;;;;;;;;;;19.30;42.40;;;;;;494081;241;1273;-75
2022/01/04 08:07:17;;;;;;;;;;;19.20;42.40;;;;;;494017;241;2195;-76
2022/01/04 08:09:18;;;;;;;;;;;19.30;42.50;;;;;;494045;241;1192;-76
2022/01/04 08:11:20;;;;;;;;;;;19.30;42.40;;;;;;494049;241;1449;-76
2022/01/04 08:13:21;;;;;;;;;;;19.30;42.40;;;;;;494157;241;1337;-75
2022/01/04 08:15:23;;;;;;;;;;;19.30;42.40;;;;;;494033;241;1033;-76
2022/01/04 08:17:24;;;;;;;;;;;19.30;42.40;;;;;;494036;241;1223;-76
2022/01/04 08:19:26;;;;;;;;;;;19.40;42.50;;;;;;494041;241;1012;-76
2022/01/04 08:21:27;;;;;;;;;;;19.30;42.60;;;;;;493954;241;1331;-76
2022/01/04 08:23:28;;;;;;;;;;;19.30;42.70;;;;;;493989;241;1003;-76
2022/01/04 08:25:30;;;;;;;;;;;19.30;42.70;;;;;;494006;241;1074;-76
2022/01/04 08:27:31;;;;;;;;;;;19.30;42.70;;;;;;493908;241;2131;-76
2022/01/04 08:29:32;;;;;;;;;;;19.30;42.70;;;;;;494004;241;1064;-76
2022/01/04 08:31:34;;;;;;;;;;;19.30;42.70;;;;;;493874;241;1091;-76
2022/01/04 08:33:35;;;;;;;;;;;19.40;42.70;;;;;;494050;241;1039;-76
2022/01/04 08:35:36;;;;;;;;;;;19.30;42.80;;;;;;493986;241;1117;-76
2022/01/04 08:37:38;;;;;;;;;;;19.40;42.70;;;;;;493895;241;1177;-75
2022/01/04 08:39:39;;;;;;;;;;;19.40;42.70;;;;;;493924;241;1012;-76
2022/01/04 08:41:40;;;;;;;;;;;19.40;42.70;;;;;;493836;241;1155;-76
2022/01/04 08:43:42;;;;;;;;;;;19.40;42.80;;;;;;493908;241;1417;-76
2022/01/04 08:45:43;;;;;;;;;;;19.40;43.00;;;;;;493860;241;1427;-76
2022/01/04 08:47:44;;;;;;;;;;;19.30;43.10;;;;;;494019;241;2112;-75
2022/01/04 08:49:46;;;;;;;;;;;19.40;43.10;;;;;;494087;241;1084;-75
2022/01/04 08:51:47;;;;;;;;;;;19.40;43.10;;;;;;493820;241;1346;-76
2022/01/04 08:53:48;;;;;;;;;;;19.40;43.20;;;;;;493825;241;1062;-76
2022/01/04 08:55:50;;;;;;;;;;;19.40;43.30;;;;;;493790;241;1561;-75
2022/01/04 08:57:51;;;;;;;;;;;19.30;43.60;;;;;;493995;241;1065;-75
2022/01/04 08:59:54;;;;;;;;;;;19.40;43.60;;;;;;493831;241;976;-75
2022/01/04 09:01:54;;;;;;;;;;;19.30;43.60;;;;;;493782;241;1590;-76
2022/01/04 09:03:56;;;;;;;;;;;19.30;43.80;;;;;;494005;241;1098;-76
2022/01/04 09:05:57;;;;;;;;;;;19.30;43.80;;;;;;493940;241;1683;-76
2022/01/04 09:07:58;;;;;;;;;;;19.40;44.00;;;;;;493845;241;2202;-75
2022/01/04 09:10:00;;;;;;;;;;;19.40;44.00;;;;;;493707;241;1031;-76
2022/01/04 09:12:01;;;;;;;;;;;19.40;44.10;;;;;;492989;241;1167;-76
2022/01/04 09:14:20;;;;;;;;;;;19.30;44.20;;;;;;494039;241;1055;-76
2022/01/04 09:18:43;;;;;;;;;;;19.40;44.20;;;;;;493833;241;1204;-75
2022/01/04 09:20:46;;;;;;;;;;;19.70;44.10;;;;;;492295;241;1300;-76
2022/01/04 09:22:46;;;;;;;;;;;19.60;43.90;;;;;;493761;241;1150;-76
2022/01/04 09:24:48;;;;;;;;;;;19.50;44.00;;;;;;493861;241;1007;-76
2022/01/04 09:26:49;;;;;;;;;;;19.40;44.30;;;;;;493753;241;2124;-76
2022/01/04 09:28:50;;;;;;;;;;;19.40;44.40;;;;;;493830;241;1019;-76
2022/01/04 09:30:52;;;;;;;;;;;19.40;44.70;;;;;;493763;241;1228;-76
2022/01/04 09:32:53;;;;;;;;;;;19.40;44.70;;;;;;493962;241;1107;-76
2022/01/04 09:34:54;;;;;;;;;;;19.40;44.60;;;;;;493989;241;1056;-76
2022/01/04 09:36:56;;;;;;;;;;;19.50;44.60;;;;;;493903;241;1520;-76
2022/01/04 09:38:57;;;;;;;;;;;19.50;44.60;;;;;;493849;241;1099;-76
2022/01/04 09:40:58;;;;;;;;;;;19.50;44.70;;;;;;493765;241;1330;-76
2022/01/04 09:43:00;;;;;;;;;;;19.50;44.80;;;;;;494015;241;1380;-76
2022/01/04 09:45:01;;;;;;;;;;;19.50;44.80;;;;;;493856;241;1120;-76
2022/01/04 09:47:03;;;;;;;;;;;19.50;44.90;;;;;;493846;241;2186;-75
2022/01/04 09:49:04;;;;;;;;;;;19.50;44.90;;;;;;493981;241;1441;-75
2022/01/04 09:51:05;;;;;;;;;;;19.40;45.10;;;;;;494093;241;1199;-75
2022/01/04 09:53:06;;;;;;;;;;;19.40;45.10;;;;;;493928;241;1131;-75
2022/01/04 09:55:08;;;;;;;;;;;19.50;45.10;;;;;;493900;241;1053;-76
2022/01/04 09:57:09;;;;;;;;;;;19.40;45.30;;;;;;493849;241;1074;-76
2022/01/04 09:59:10;;;;;;;;;;;19.40;45.30;;;;;;494038;241;981;-76
2022/01/04 10:01:12;;;;;;;;;;;19.40;45.30;;;;;;493787;241;1501;-76
2022/01/04 10:03:13;;;;;;;;;;;19.50;45.30;;;;;;493747;241;1122;-76
2022/01/04 10:05:14;;;;;;;;;;;19.40;45.40;;;;;;493824;241;1017;-76
2022/01/04 10:07:16;;;;;;;;;;;19.40;45.40;;;;;;493868;241;2154;-76
2022/01/04 10:09:18;;;;;;;;;;;19.50;45.40;;;;;;493841;241;1221;-76
2022/01/04 10:11:19;;;;;;;;;;;19.40;45.50;;;;;;493855;241;1203;-76
2022/01/04 10:13:20;;;;;;;;;;;19.40;45.50;;;;;;493869;241;1123;-76
2022/01/04 10:15:21;;;;;;;;;;;19.50;45.50;;;;;;493920;241;947;-76
2022/01/04 10:17:23;;;;;;;;;;;19.50;45.50;;;;;;493987;241;1127;-76
2022/01/04 10:19:24;;;;;;;;;;;19.40;45.70;;;;;;493962;241;1453;-76
2022/01/04 10:21:25;;;;;;;;;;;19.50;45.70;;;;;;493892;241;1158;-75
2022/01/04 10:23:26;;;;;;;;;;;19.40;45.80;;;;;;493801;241;1109;-75
2022/01/04 10:25:28;;;;;;;;;;;19.40;45.80;;;;;;493884;241;1052;-76
2022/01/04 10:27:29;;;;;;;;;;;19.40;45.70;;;;;;493767;241;2158;-75
2022/01/04 10:29:30;;;;;;;;;;;19.40;45.80;;;;;;494047;241;1055;-75
2022/01/04 10:31:32;;;;;;;;;;;19.50;45.90;;;;;;493860;241;1462;-75
2022/01/04 10:33:34;;;;;;;;;;;19.50;45.80;;;;;;493830;241;1128;-75
2022/01/04 10:35:34;;;;;;;;;;;19.50;45.70;;;;;;493803;241;1402;-75
2022/01/04 10:37:37;;;;;;;;;;;19.50;45.80;;;;;;493918;241;1374;-75
2022/01/04 10:39:37;;;;;;;;;;;19.40;46.10;;;;;;493844;241;1465;-75
2022/01/04 10:41:38;;;;;;;;;;;19.40;46.10;;;;;;493854;241;1156;-76
2022/01/04 10:43:40;;;;;;;;;;;19.40;46.20;;;;;;493887;241;1386;-75
2022/01/04 10:45:42;;;;;;;;;;;19.40;46.20;;;;;;493879;241;1018;-75
2022/01/04 10:47:43;;;;;;;;;;;19.40;46.20;;;;;;493804;241;2198;-75
2022/01/04 10:49:44;;;;;;;;;;;19.30;46.20;;;;;;494029;241;939;-75
2022/01/04 10:51:45;;;;;;;;;;;19.40;46.20;;;;;;493956;241;1377;-75
2022/01/04 10:53:47;;;;;;;;;;;19.50;46.00;;;;;;493930;241;1164;-75
2022/01/04 10:55:49;;;;;;;;;;;19.50;45.90;;;;;;493951;241;1408;-76
2022/01/04 10:57:50;;;;;;;;;;;19.50;46.00;;;;;;494100;241;1649;-75
2022/01/04 10:59:51;;;;;;;;;;;19.40;46.20;;;;;;493966;241;1009;-75
2022/01/04 11:01:52;;;;;;;;;;;19.40;46.10;;;;;;493809;241;1078;-75
2022/01/04 11:03:53;;;;;;;;;;;19.50;46.00;;;;;;493771;241;1196;-76
2022/01/04 11:05:55;;;;;;;;;;;19.40;46.20;;;;;;493765;241;1355;-75
2022/01/04 11:07:56;;;;;;;;;;;19.40;46.30;;;;;;493754;241;2115;-75
2022/01/04 11:09:57;;;;;;;;;;;19.40;46.20;;;;;;493885;241;1080;-75
2022/01/04 11:11:59;;;;;;;;;;;19.40;46.20;;;;;;493874;241;1405;-75
2022/01/04 11:14:00;;;;;;;;;;;19.40;46.30;;;;;;493882;241;1081;-76
2022/01/04 11:16:01;;;;;;;;;;;19.40;46.40;;;;;;493839;241;1305;-75
2022/01/04 11:18:03;;;;;;;;;;;19.40;46.30;;;;;;494149;241;1137;-76
2022/01/04 11:20:04;;;;;;;;;;;19.50;46.20;;;;;;493956;241;996;-76
2022/01/04 11:22:08;;;;;;;;;;;19.50;46.10;;;;;;493997;241;1095;-76
2022/01/04 11:24:07;;;;;;;;;;;19.50;46.10;;;;;;493796;241;1334;-76
2022/01/04 11:26:08;;;;;;;;;;;19.50;46.20;;;;;;493949;241;1528;-75
2022/01/04 11:28:09;;;;;;;;;;;19.50;46.20;;;;;;493818;241;2111;-75
2022/01/04 11:30:11;;;;;;;;;;;19.50;46.10;;;;;;493822;241;1104;-76
2022/01/04 11:32:14;;;;;;;;;;;19.50;46.00;;;;;;493820;241;1271;-75
2022/01/04 11:34:14;;;;;;;;;;;19.50;46.10;;;;;;493908;241;1347;-75
2022/01/04 11:36:15;;;;;;;;;;;19.50;46.10;;;;;;493845;241;1310;-75
2022/01/04 11:38:16;;;;;;;;;;;19.40;46.20;;;;;;493992;241;1172;-75
2022/01/04 11:40:18;;;;;;;;;;;19.50;46.10;;;;;;493938;241;1078;-75
2022/01/04 11:42:19;;;;;;;;;;;19.50;46.00;;;;;;493802;241;1043;-75
2022/01/04 11:44:20;;;;;;;;;;;19.50;46.10;;;;;;493798;241;1067;-75
2022/01/04 11:46:22;;;;;;;;;;;19.40;46.10;;;;;;493704;241;1183;-75
2022/01/04 11:48:23;;;;;;;;;;;19.40;46.10;;;;;;493928;241;2182;-75
2022/01/04 11:50:25;;;;;;;;;;;19.60;46.00;;;;;;493870;241;1066;-75
2022/01/04 11:52:26;;;;;;;;;;;19.70;45.50;;;;;;493885;241;1173;-75
2022/01/04 11:54:27;;;;;;;;;;;19.60;45.70;;;;;;494000;241;1046;-75
2022/01/04 11:56:28;;;;;;;;;;;19.60;45.80;;;;;;493891;241;1192;-76
2022/01/04 11:58:30;;;;;;;;;;;19.60;45.90;;;;;;493889;241;1151;-75
2022/01/04 12:00:31;;;;;;;;;;;19.50;45.90;;;;;;493896;241;1098;-75
2022/01/04 12:02:33;;;;;;;;;;;19.50;46.00;;;;;;493815;241;1553;-75